sensor_id;sensor_type;location;lat;lon;timestamp;temperature;humidity
9699;DHT22;10089;47.876;8.346;2022-09-09T00:00:37;11.20;99.90
9699;DHT22;10089;47.876;8.346;2022-09-09T00:05:37;11.30;99.90
9699;DHT22;10089;47.876;8.346;2022-09-09T00:08:07;11.40;99.90
9699;DHT22;10089;47.876;8.346;2022-09-09T00:10:37;11.30;99.90
9699;DHT22;10089;47.876;8.346;2022-09-09T00:18:05;11.20;99.90
9699;DHT22;10089;47.876;8.346;2022-09-09T00:23:05;11.10;99.90
9699;DHT22;10089;47.876;8.346;2022-09-09T00:25:40;11.10;99.90
9699;DHT22;10089;47.876;8.346;2022-09-09T00:28:13;11.00;99.90
9699;DHT22;10089;47.876;8.346;2022-09-09T00:30:42;11.00;99.90
9699;DHT22;10089;47.876;8.346;2022-09-09T00:33:10;11.00;99.90
9699;DHT22;10089;47.876;8.346;2022-09-09T00:35:38;11.10;99.90
9699;DHT22;10089;47.876;8.346;2022-09-09T00:38:24;11.10;99.90
9699;DHT22;10089;47.876;8.346;2022-09-09T00:43:38;11.00;99.90
9699;DHT22;10089;47.876;8.346;2022-09-09T00:48:34;10.90;99.90
9699;DHT22;10089;47.876;8.346;2022-09-09T00:51:05;10.90;99.90
9699;DHT22;10089;47.876;8.346;2022-09-09T00:56:21;11.10;99.90
9699;DHT22;10089;47.876;8.346;2022-09-09T00:58:57;11.00;99.90
9699;DHT22;10089;47.876;8.346;2022-09-09T01:01:25;11.00;99.90
9699;DHT22;10089;47.876;8.346;2022-09-09T01:06:20;11.20;99.90
9699;DHT22;10089;47.876;8.346;2022-09-09T01:14:30;12.10;99.90
9699;DHT22;10089;47.876;8.346;2022-09-09T01:17:05;12.50;99.90
9699;DHT22;10089;47.876;8.346;2022-09-09T01:22:03;12.80;99.90
9699;DHT22;10089;47.876;8.346;2022-09-09T01:24:42;13.00;99.90
9699;DHT22;10089;47.876;8.346;2022-09-09T01:27:13;13.00;99.90
9699;DHT22;10089;47.876;8.346;2022-09-09T01:29:40;13.00;99.90
9699;DHT22;10089;47.876;8.346;2022-09-09T01:35:08;13.00;99.90
9699;DHT22;10089;47.876;8.346;2022-09-09T01:37:35;13.00;99.90
9699;DHT22;10089;47.876;8.346;2022-09-09T01:40:01;12.90;99.90
9699;DHT22;10089;47.876;8.346;2022-09-09T01:42:27;12.90;99.90
9699;DHT22;10089;47.876;8.346;2022-09-09T01:44:53;12.90;99.90
9699;DHT22;10089;47.876;8.346;2022-09-09T01:47:19;12.90;99.90
9699;DHT22;10089;47.876;8.346;2022-09-09T01:49:45;12.90;99.90
9699;DHT22;10089;47.876;8.346;2022-09-09T01:52:11;12.90;99.90
9699;DHT22;10089;47.876;8.346;2022-09-09T01:54:37;12.70;99.90
9699;DHT22;10089;47.876;8.346;2022-09-09T01:57:17;12.40;99.90
9699;DHT22;10089;47.876;8.346;2022-09-09T02:00:10;12.30;99.90
9699;DHT22;10089;47.876;8.346;2022-09-09T02:08:14;12.60;99.90
9699;DHT22;10089;47.876;8.346;2022-09-09T02:10:53;12.50;99.90
9699;DHT22;10089;47.876;8.346;2022-09-09T02:13:21;12.50;99.90
9699;DHT22;10089;47.876;8.346;2022-09-09T02:15:57;12.50;99.90
9699;DHT22;10089;47.876;8.346;2022-09-09T02:18:48;12.50;99.90
9699;DHT22;10089;47.876;8.346;2022-09-09T02:21:16;12.50;99.90
9699;DHT22;10089;47.876;8.346;2022-09-09T02:23:43;12.50;99.90
9699;DHT22;10089;47.876;8.346;2022-09-09T02:26:12;12.50;99.90
9699;DHT22;10089;47.876;8.346;2022-09-09T02:28:40;12.60;99.90
9699;DHT22;10089;47.876;8.346;2022-09-09T02:31:07;12.60;99.90
9699;DHT22;10089;47.876;8.346;2022-09-09T02:33:40;12.60;99.90
9699;DHT22;10089;47.876;8.346;2022-09-09T02:36:08;12.60;99.90
9699;DHT22;10089;47.876;8.346;2022-09-09T02:38:39;12.60;99.90
9699;DHT22;10089;47.876;8.346;2022-09-09T02:41:06;12.60;99.90
9699;DHT22;10089;47.876;8.346;2022-09-09T02:43:35;12.60;99.90
9699;DHT22;10089;47.876;8.346;2022-09-09T02:46:40;12.60;99.90
9699;DHT22;10089;47.876;8.346;2022-09-09T02:49:55;12.50;99.90
9699;DHT22;10089;47.876;8.346;2022-09-09T02:52:06;12.50;99.90
9699;DHT22;10089;47.876;8.346;2022-09-09T02:54:35;12.40;99.90
9699;DHT22;10089;47.876;8.346;2022-09-09T02:57:10;12.40;99.90
9699;DHT22;10089;47.876;8.346;2022-09-09T02:59:37;12.30;99.90
9699;DHT22;10089;47.876;8.346;2022-09-09T03:02:03;12.50;99.90
9699;DHT22;10089;47.876;8.346;2022-09-09T03:04:29;12.40;99.90
9699;DHT22;10089;47.876;8.346;2022-09-09T03:06:59;12.40;99.90
9699;DHT22;10089;47.876;8.346;2022-09-09T03:09:25;12.40;99.90
9699;DHT22;10089;47.876;8.346;2022-09-09T03:11:53;12.40;99.90
9699;DHT22;10089;47.876;8.346;2022-09-09T03:14:20;12.50;99.90
9699;DHT22;10089;47.876;8.346;2022-09-09T03:16:53;12.50;99.90
9699;DHT22;10089;47.876;8.346;2022-09-09T03:19:20;12.50;99.90
9699;DHT22;10089;47.876;8.346;2022-09-09T03:21:46;12.50;99.90
9699;DHT22;10089;47.876;8.346;2022-09-09T03:24:13;12.50;99.90
9699;DHT22;10089;47.876;8.346;2022-09-09T03:26:40;12.40;99.90
9699;DHT22;10089;47.876;8.346;2022-09-09T03:29:07;12.30;99.90
9699;DHT22;10089;47.876;8.346;2022-09-09T03:31:36;12.20;99.90
9699;DHT22;10089;47.876;8.346;2022-09-09T03:34:02;12.20;99.90
9699;DHT22;10089;47.876;8.346;2022-09-09T03:36:28;12.20;99.90
9699;DHT22;10089;47.876;8.346;2022-09-09T03:38:55;12.10;99.90
9699;DHT22;10089;47.876;8.346;2022-09-09T03:41:24;12.00;99.90
9699;DHT22;10089;47.876;8.346;2022-09-09T03:43:54;12.10;99.90
9699;DHT22;10089;47.876;8.346;2022-09-09T03:46:21;12.10;99.90
9699;DHT22;10089;47.876;8.346;2022-09-09T03:48:47;12.00;99.90
9699;DHT22;10089;47.876;8.346;2022-09-09T03:51:13;11.90;99.90
9699;DHT22;10089;47.876;8.346;2022-09-09T03:53:39;11.90;99.90
9699;DHT22;10089;47.876;8.346;2022-09-09T03:56:06;11.80;99.90
9699;DHT22;10089;47.876;8.346;2022-09-09T03:58:36;11.60;99.90
9699;DHT22;10089;47.876;8.346;2022-09-09T04:01:05;11.70;99.90
9699;DHT22;10089;47.876;8.346;2022-09-09T04:03:32;11.80;99.90
9699;DHT22;10089;47.876;8.346;2022-09-09T04:06:01;11.90;99.90
9699;DHT22;10089;47.876;8.346;2022-09-09T04:08:27;12.10;99.90
9699;DHT22;10089;47.876;8.346;2022-09-09T04:10:53;12.00;99.90
9699;DHT22;10089;47.876;8.346;2022-09-09T04:13:23;12.10;99.90
9699;DHT22;10089;47.876;8.346;2022-09-09T04:15:58;12.20;99.90
9699;DHT22;10089;47.876;8.346;2022-09-09T04:18:24;12.30;99.90
9699;DHT22;10089;47.876;8.346;2022-09-09T04:20:52;12.30;99.90
9699;DHT22;10089;47.876;8.346;2022-09-09T04:23:18;12.30;99.90
9699;DHT22;10089;47.876;8.346;2022-09-09T04:25:50;12.30;99.90
9699;DHT22;10089;47.876;8.346;2022-09-09T04:28:17;12.30;99.90
9699;DHT22;10089;47.876;8.346;2022-09-09T04:30:44;12.20;99.90
9699;DHT22;10089;47.876;8.346;2022-09-09T04:33:11;12.20;99.90
9699;DHT22;10089;47.876;8.346;2022-09-09T04:35:38;12.20;99.90
9699;DHT22;10089;47.876;8.346;2022-09-09T04:38:04;11.90;99.90
9699;DHT22;10089;47.876;8.346;2022-09-09T04:40:31;11.90;99.90
9699;DHT22;10089;47.876;8.346;2022-09-09T04:43:01;11.80;99.90
9699;DHT22;10089;47.876;8.346;2022-09-09T04:45:30;11.70;99.90
9699;DHT22;10089;47.876;8.346;2022-09-09T04:47:56;11.70;99.90
9699;DHT22;10089;47.876;8.346;2022-09-09T04:50:22;11.60;99.90
9699;DHT22;10089;47.876;8.346;2022-09-09T04:52:48;11.70;99.90
9699;DHT22;10089;47.876;8.346;2022-09-09T04:55:14;11.70;99.90
9699;DHT22;10089;47.876;8.346;2022-09-09T04:57:40;11.60;99.90
9699;DHT22;10089;47.876;8.346;2022-09-09T05:00:06;11.70;99.90
9699;DHT22;10089;47.876;8.346;2022-09-09T05:02:32;11.70;99.90
9699;DHT22;10089;47.876;8.346;2022-09-09T05:04:58;11.80;99.90
9699;DHT22;10089;47.876;8.346;2022-09-09T05:07:26;11.80;99.90
9699;DHT22;10089;47.876;8.346;2022-09-09T05:09:53;11.90;99.90
9699;DHT22;10089;47.876;8.346;2022-09-09T05:12:19;11.80;99.90
9699;DHT22;10089;47.876;8.346;2022-09-09T05:14:44;11.80;99.90
9699;DHT22;10089;47.876;8.346;2022-09-09T05:17:11;11.80;99.90
9699;DHT22;10089;47.876;8.346;2022-09-09T05:19:38;11.80;99.90
9699;DHT22;10089;47.876;8.346;2022-09-09T05:22:03;11.80;99.90
9699;DHT22;10089;47.876;8.346;2022-09-09T05:24:30;11.90;99.90
9699;DHT22;10089;47.876;8.346;2022-09-09T05:26:58;12.10;99.90
9699;DHT22;10089;47.876;8.346;2022-09-09T05:29:25;12.10;99.90
9699;DHT22;10089;47.876;8.346;2022-09-09T05:31:52;12.10;99.90
9699;DHT22;10089;47.876;8.346;2022-09-09T05:34:17;12.00;99.90
9699;DHT22;10089;47.876;8.346;2022-09-09T05:36:43;12.00;99.90
9699;DHT22;10089;47.876;8.346;2022-09-09T05:39:09;11.90;99.90
9699;DHT22;10089;47.876;8.346;2022-09-09T05:41:37;12.00;99.90
9699;DHT22;10089;47.876;8.346;2022-09-09T05:44:03;12.10;99.90
9699;DHT22;10089;47.876;8.346;2022-09-09T05:46:29;12.00;99.90
9699;DHT22;10089;47.876;8.346;2022-09-09T05:48:55;12.10;99.90
9699;DHT22;10089;47.876;8.346;2022-09-09T05:51:26;12.20;99.90
9699;DHT22;10089;47.876;8.346;2022-09-09T05:53:53;12.30;99.90
9699;DHT22;10089;47.876;8.346;2022-09-09T05:56:29;12.40;99.90
9699;DHT22;10089;47.876;8.346;2022-09-09T05:58:56;12.50;99.90
9699;DHT22;10089;47.876;8.346;2022-09-09T06:01:27;12.50;99.90
9699;DHT22;10089;47.876;8.346;2022-09-09T06:03:54;12.50;99.90
9699;DHT22;10089;47.876;8.346;2022-09-09T06:06:31;12.70;99.90
9699;DHT22;10089;47.876;8.346;2022-09-09T06:08:58;12.60;99.90
9699;DHT22;10089;47.876;8.346;2022-09-09T06:11:29;12.60;99.90
9699;DHT22;10089;47.876;8.346;2022-09-09T06:13:56;12.60;99.90
9699;DHT22;10089;47.876;8.346;2022-09-09T06:16:24;12.70;99.90
9699;DHT22;10089;47.876;8.346;2022-09-09T06:18:52;12.80;99.90
9699;DHT22;10089;47.876;8.346;2022-09-09T06:21:20;12.90;99.90
9699;DHT22;10089;47.876;8.346;2022-09-09T06:23:47;12.40;99.90
9699;DHT22;10089;47.876;8.346;2022-09-09T06:26:18;12.50;99.90
9699;DHT22;10089;47.876;8.346;2022-09-09T06:28:49;12.70;99.90
9699;DHT22;10089;47.876;8.346;2022-09-09T06:31:17;13.40;99.90
9699;DHT22;10089;47.876;8.346;2022-09-09T06:33:48;13.50;99.90
9699;DHT22;10089;47.876;8.346;2022-09-09T06:36:19;13.90;99.90
9699;DHT22;10089;47.876;8.346;2022-09-09T06:38:46;14.00;99.90
9699;DHT22;10089;47.876;8.346;2022-09-09T06:41:14;14.50;99.90
9699;DHT22;10089;47.876;8.346;2022-09-09T06:43:40;14.10;99.90
9699;DHT22;10089;47.876;8.346;2022-09-09T06:46:15;14.90;99.90
9699;DHT22;10089;47.876;8.346;2022-09-09T06:48:43;15.20;99.90
9699;DHT22;10089;47.876;8.346;2022-09-09T06:51:17;14.70;99.90
9699;DHT22;10089;47.876;8.346;2022-09-09T06:54:18;15.90;99.90
9699;DHT22;10089;47.876;8.346;2022-09-09T06:56:54;15.50;99.90
9699;DHT22;10089;47.876;8.346;2022-09-09T06:59:22;15.20;99.90
9699;DHT22;10089;47.876;8.346;2022-09-09T07:01:50;15.40;99.90
9699;DHT22;10089;47.876;8.346;2022-09-09T07:04:25;15.00;99.90
9699;DHT22;10089;47.876;8.346;2022-09-09T07:07:05;14.10;99.90
9699;DHT22;10089;47.876;8.346;2022-09-09T07:20:07;13.60;99.90
9699;DHT22;10089;47.876;8.346;2022-09-09T07:22:33;14.20;99.90
9699;DHT22;10089;47.876;8.346;2022-09-09T07:24:58;14.20;99.90
9699;DHT22;10089;47.876;8.346;2022-09-09T07:27:24;14.30;99.90
9699;DHT22;10089;47.876;8.346;2022-09-09T07:29:50;14.40;99.90
9699;DHT22;10089;47.876;8.346;2022-09-09T07:32:16;14.70;99.90
9699;DHT22;10089;47.876;8.346;2022-09-09T07:34:43;14.70;99.90
9699;DHT22;10089;47.876;8.346;2022-09-09T07:37:08;14.60;99.90
9699;DHT22;10089;47.876;8.346;2022-09-09T07:39:37;14.60;99.90
9699;DHT22;10089;47.876;8.346;2022-09-09T07:42:03;15.50;99.90
9699;DHT22;10089;47.876;8.346;2022-09-09T07:44:30;16.30;99.90
9699;DHT22;10089;47.876;8.346;2022-09-09T07:46:57;16.60;99.90
9699;DHT22;10089;47.876;8.346;2022-09-09T07:49:23;16.30;99.90
9699;DHT22;10089;47.876;8.346;2022-09-09T07:51:49;16.10;99.90
9699;DHT22;10089;47.876;8.346;2022-09-09T07:54:17;16.00;99.90
9699;DHT22;10089;47.876;8.346;2022-09-09T07:56:46;15.80;99.90
9699;DHT22;10089;47.876;8.346;2022-09-09T07:59:13;15.20;99.90
9699;DHT22;10089;47.876;8.346;2022-09-09T08:01:42;15.10;99.90
9699;DHT22;10089;47.876;8.346;2022-09-09T08:04:17;15.20;99.90
9699;DHT22;10089;47.876;8.346;2022-09-09T08:06:54;15.10;99.90
9699;DHT22;10089;47.876;8.346;2022-09-09T08:09:21;14.80;99.90
9699;DHT22;10089;47.876;8.346;2022-09-09T08:11:50;14.50;99.90
9699;DHT22;10089;47.876;8.346;2022-09-09T08:14:16;14.50;99.90
9699;DHT22;10089;47.876;8.346;2022-09-09T08:16:45;14.20;99.90
9699;DHT22;10089;47.876;8.346;2022-09-09T08:19:12;14.30;99.90
9699;DHT22;10089;47.876;8.346;2022-09-09T08:21:39;14.40;99.90
9699;DHT22;10089;47.876;8.346;2022-09-09T08:24:07;14.40;99.90
9699;DHT22;10089;47.876;8.346;2022-09-09T08:26:45;14.70;99.90
9699;DHT22;10089;47.876;8.346;2022-09-09T08:29:13;14.90;99.90
9699;DHT22;10089;47.876;8.346;2022-09-09T08:31:46;14.80;99.90
9699;DHT22;10089;47.876;8.346;2022-09-09T08:34:12;15.70;99.90
9699;DHT22;10089;47.876;8.346;2022-09-09T08:36:41;16.60;99.90
9699;DHT22;10089;47.876;8.346;2022-09-09T08:39:10;17.00;99.90
9699;DHT22;10089;47.876;8.346;2022-09-09T08:50:36;18.20;99.90
9699;DHT22;10089;47.876;8.346;2022-09-09T08:53:05;17.70;99.90
9699;DHT22;10089;47.876;8.346;2022-09-09T08:55:50;17.60;99.90
9699;DHT22;10089;47.876;8.346;2022-09-09T08:58:23;17.30;99.90
9699;DHT22;10089;47.876;8.346;2022-09-09T09:06:26;16.40;99.90
9699;DHT22;10089;47.876;8.346;2022-09-09T09:11:55;16.80;99.90
9699;DHT22;10089;47.876;8.346;2022-09-09T09:14:30;17.10;99.90
9699;DHT22;10089;47.876;8.346;2022-09-09T09:17:14;17.00;99.90
9699;DHT22;10089;47.876;8.346;2022-09-09T09:19:47;16.60;99.90
9699;DHT22;10089;47.876;8.346;2022-09-09T09:22:23;16.90;99.90
9699;DHT22;10089;47.876;8.346;2022-09-09T09:25:22;17.00;99.90
9699;DHT22;10089;47.876;8.346;2022-09-09T09:28:25;17.20;99.90
9699;DHT22;10089;47.876;8.346;2022-09-09T09:30:59;17.30;99.90
9699;DHT22;10089;47.876;8.346;2022-09-09T09:33:47;17.70;99.90
9699;DHT22;10089;47.876;8.346;2022-09-09T09:36:15;17.80;99.90
9699;DHT22;10089;47.876;8.346;2022-09-09T09:39:01;17.30;99.90
9699;DHT22;10089;47.876;8.346;2022-09-09T09:44:32;17.40;99.90
9699;DHT22;10089;47.876;8.346;2022-09-09T09:47:10;18.00;99.90
9699;DHT22;10089;47.876;8.346;2022-09-09T09:49:36;17.90;99.90
9699;DHT22;10089;47.876;8.346;2022-09-09T09:52:03;18.30;99.90
9699;DHT22;10089;47.876;8.346;2022-09-09T09:54:33;18.40;99.90
9699;DHT22;10089;47.876;8.346;2022-09-09T09:57:12;18.00;99.90
9699;DHT22;10089;47.876;8.346;2022-09-09T09:59:40;18.00;99.90
9699;DHT22;10089;47.876;8.346;2022-09-09T10:02:31;18.10;99.90
9699;DHT22;10089;47.876;8.346;2022-09-09T10:05:06;18.70;99.90
9699;DHT22;10089;47.876;8.346;2022-09-09T10:07:32;18.70;99.90
9699;DHT22;10089;47.876;8.346;2022-09-09T10:09:58;18.70;99.90
9699;DHT22;10089;47.876;8.346;2022-09-09T10:12:43;19.10;99.90
9699;DHT22;10089;47.876;8.346;2022-09-09T10:15:47;19.10;99.90
9699;DHT22;10089;47.876;8.346;2022-09-09T10:20:54;19.00;99.90
9699;DHT22;10089;47.876;8.346;2022-09-09T10:26:13;18.70;99.90
9699;DHT22;10089;47.876;8.346;2022-09-09T10:33:04;19.60;99.90
9699;DHT22;10089;47.876;8.346;2022-09-09T10:35:25;19.70;99.90
9699;DHT22;10089;47.876;8.346;2022-09-09T10:40:47;19.60;99.90
9699;DHT22;10089;47.876;8.346;2022-09-09T10:43:42;19.30;99.90
9699;DHT22;10089;47.876;8.346;2022-09-09T10:49:04;18.70;99.90
9699;DHT22;10089;47.876;8.346;2022-09-09T10:57:55;18.40;99.90
9699;DHT22;10089;47.876;8.346;2022-09-09T11:00:40;19.80;99.90
9699;DHT22;10089;47.876;8.346;2022-09-09T11:03:24;20.00;99.90
9699;DHT22;10089;47.876;8.346;2022-09-09T11:06:05;19.90;99.90
9699;DHT22;10089;47.876;8.346;2022-09-09T11:08:35;19.80;97.80
9699;DHT22;10089;47.876;8.346;2022-09-09T11:13:49;20.30;99.90
9699;DHT22;10089;47.876;8.346;2022-09-09T11:16:40;20.50;99.20
9699;DHT22;10089;47.876;8.346;2022-09-09T11:19:27;20.50;99.90
9699;DHT22;10089;47.876;8.346;2022-09-09T11:21:55;20.60;98.30
9699;DHT22;10089;47.876;8.346;2022-09-09T11:26:58;20.10;98.60
9699;DHT22;10089;47.876;8.346;2022-09-09T11:32:04;20.60;94.90
9699;DHT22;10089;47.876;8.346;2022-09-09T11:34:37;20.40;98.20
9699;DHT22;10089;47.876;8.346;2022-09-09T11:37:07;20.50;98.10
9699;DHT22;10089;47.876;8.346;2022-09-09T11:39:37;20.30;97.00
9699;DHT22;10089;47.876;8.346;2022-09-09T11:42:15;19.80;95.60
9699;DHT22;10089;47.876;8.346;2022-09-09T11:44:42;19.60;99.40
9699;DHT22;10089;47.876;8.346;2022-09-09T11:47:27;19.50;99.90
9699;DHT22;10089;47.876;8.346;2022-09-09T11:52:39;19.80;99.60
9699;DHT22;10089;47.876;8.346;2022-09-09T11:55:10;19.80;99.40
9699;DHT22;10089;47.876;8.346;2022-09-09T11:57:38;19.40;99.90
9699;DHT22;10089;47.876;8.346;2022-09-09T12:00:04;19.10;99.90
9699;DHT22;10089;47.876;8.346;2022-09-09T12:02:31;19.20;99.90
9699;DHT22;10089;47.876;8.346;2022-09-09T12:05:10;19.30;99.90
9699;DHT22;10089;47.876;8.346;2022-09-09T12:07:41;19.60;99.90
9699;DHT22;10089;47.876;8.346;2022-09-09T12:12:43;20.50;99.90
9699;DHT22;10089;47.876;8.346;2022-09-09T12:17:44;19.90;96.10
9699;DHT22;10089;47.876;8.346;2022-09-09T12:27:55;20.40;99.20
9699;DHT22;10089;47.876;8.346;2022-09-09T12:30:22;20.70;99.40
9699;DHT22;10089;47.876;8.346;2022-09-09T12:33:10;20.60;96.50
9699;DHT22;10089;47.876;8.346;2022-09-09T12:35:38;20.60;97.80
9699;DHT22;10089;47.876;8.346;2022-09-09T12:38:04;20.30;98.20
9699;DHT22;10089;47.876;8.346;2022-09-09T12:40:33;20.20;97.90
9699;DHT22;10089;47.876;8.346;2022-09-09T12:43:15;20.10;97.40
9699;DHT22;10089;47.876;8.346;2022-09-09T12:45:41;19.60;97.70
9699;DHT22;10089;47.876;8.346;2022-09-09T12:48:09;19.80;96.70
9699;DHT22;10089;47.876;8.346;2022-09-09T12:50:49;20.10;98.10
9699;DHT22;10089;47.876;8.346;2022-09-09T12:53:19;19.70;93.50
9699;DHT22;10089;47.876;8.346;2022-09-09T12:55:51;19.90;95.70
9699;DHT22;10089;47.876;8.346;2022-09-09T12:58:17;20.10;96.70
9699;DHT22;10089;47.876;8.346;2022-09-09T13:00:53;20.30;96.00
9699;DHT22;10089;47.876;8.346;2022-09-09T13:03:22;20.00;95.70
9699;DHT22;10089;47.876;8.346;2022-09-09T13:05:48;19.90;97.50
9699;DHT22;10089;47.876;8.346;2022-09-09T13:08:14;19.90;98.30
9699;DHT22;10089;47.876;8.346;2022-09-09T13:10:41;20.10;98.30
9699;DHT22;10089;47.876;8.346;2022-09-09T13:13:25;20.20;95.10
9699;DHT22;10089;47.876;8.346;2022-09-09T13:15:56;20.10;94.10
9699;DHT22;10089;47.876;8.346;2022-09-09T13:18:27;20.00;96.30
9699;DHT22;10089;47.876;8.346;2022-09-09T13:20:53;20.10;95.60
9699;DHT22;10089;47.876;8.346;2022-09-09T13:23:24;20.20;93.70
9699;DHT22;10089;47.876;8.346;2022-09-09T13:26:18;20.20;92.10
9699;DHT22;10089;47.876;8.346;2022-09-09T13:28:46;20.10;91.10
9699;DHT22;10089;47.876;8.346;2022-09-09T13:31:29;20.30;92.60
9699;DHT22;10089;47.876;8.346;2022-09-09T13:33:55;20.30;90.50
9699;DHT22;10089;47.876;8.346;2022-09-09T13:36:28;20.10;87.50
9699;DHT22;10089;47.876;8.346;2022-09-09T13:38:58;19.80;89.20
9699;DHT22;10089;47.876;8.346;2022-09-09T13:41:32;19.80;91.30
9699;DHT22;10089;47.876;8.346;2022-09-09T13:43:58;19.90;91.10
9699;DHT22;10089;47.876;8.346;2022-09-09T13:46:28;19.60;90.50
9699;DHT22;10089;47.876;8.346;2022-09-09T13:48:59;19.80;91.30
9699;DHT22;10089;47.876;8.346;2022-09-09T13:51:35;19.80;91.70
9699;DHT22;10089;47.876;8.346;2022-09-09T13:54:06;19.50;91.70
9699;DHT22;10089;47.876;8.346;2022-09-09T13:56:32;19.00;92.50
9699;DHT22;10089;47.876;8.346;2022-09-09T13:58:58;18.90;96.00
9699;DHT22;10089;47.876;8.346;2022-09-09T14:01:24;18.60;97.40
9699;DHT22;10089;47.876;8.346;2022-09-09T14:03:49;18.30;99.90
9699;DHT22;10089;47.876;8.346;2022-09-09T14:06:15;18.20;99.90
9699;DHT22;10089;47.876;8.346;2022-09-09T14:08:41;18.00;99.90
9699;DHT22;10089;47.876;8.346;2022-09-09T14:11:08;18.10;99.90
9699;DHT22;10089;47.876;8.346;2022-09-09T14:13:36;18.50;99.90
9699;DHT22;10089;47.876;8.346;2022-09-09T14:16:02;17.40;99.90
9699;DHT22;10089;47.876;8.346;2022-09-09T14:18:28;19.00;99.90
9699;DHT22;10089;47.876;8.346;2022-09-09T14:20:54;19.00;99.90
9699;DHT22;10089;47.876;8.346;2022-09-09T14:23:20;19.10;99.90
9699;DHT22;10089;47.876;8.346;2022-09-09T14:25:47;19.10;99.90
9699;DHT22;10089;47.876;8.346;2022-09-09T14:28:14;19.10;99.90
9699;DHT22;10089;47.876;8.346;2022-09-09T14:30:41;19.00;99.90
9699;DHT22;10089;47.876;8.346;2022-09-09T14:33:13;18.60;99.90
9699;DHT22;10089;47.876;8.346;2022-09-09T14:35:39;18.50;99.90
9699;DHT22;10089;47.876;8.346;2022-09-09T14:38:06;18.30;99.90
9699;DHT22;10089;47.876;8.346;2022-09-09T14:40:33;18.40;99.90
9699;DHT22;10089;47.876;8.346;2022-09-09T14:42:59;18.70;95.80
9699;DHT22;10089;47.876;8.346;2022-09-09T14:45:25;18.80;99.20
9699;DHT22;10089;47.876;8.346;2022-09-09T14:47:51;18.90;95.10
9699;DHT22;10089;47.876;8.346;2022-09-09T14:50:20;18.70;93.70
9699;DHT22;10089;47.876;8.346;2022-09-09T14:52:46;18.50;96.70
9699;DHT22;10089;47.876;8.346;2022-09-09T14:55:12;18.50;99.00
9699;DHT22;10089;47.876;8.346;2022-09-09T14:57:38;18.40;99.70
9699;DHT22;10089;47.876;8.346;2022-09-09T15:00:05;18.40;98.40
9699;DHT22;10089;47.876;8.346;2022-09-09T15:02:32;18.30;99.00
9699;DHT22;10089;47.876;8.346;2022-09-09T15:04:58;18.20;99.90
9699;DHT22;10089;47.876;8.346;2022-09-09T15:07:24;18.10;99.90
9699;DHT22;10089;47.876;8.346;2022-09-09T15:09:49;18.10;99.90
9699;DHT22;10089;47.876;8.346;2022-09-09T15:12:15;18.10;99.90
9699;DHT22;10089;47.876;8.346;2022-09-09T15:14:44;18.00;99.90
9699;DHT22;10089;47.876;8.346;2022-09-09T15:17:09;17.90;99.90
9699;DHT22;10089;47.876;8.346;2022-09-09T15:19:35;17.60;99.90
9699;DHT22;10089;47.876;8.346;2022-09-09T15:22:02;17.70;99.90
9699;DHT22;10089;47.876;8.346;2022-09-09T15:24:28;17.80;99.90
9699;DHT22;10089;47.876;8.346;2022-09-09T15:26:54;17.80;99.90
9699;DHT22;10089;47.876;8.346;2022-09-09T15:29:19;17.90;99.90
9699;DHT22;10089;47.876;8.346;2022-09-09T15:31:45;17.80;99.90
9699;DHT22;10089;47.876;8.346;2022-09-09T15:34:12;17.90;99.90
9699;DHT22;10089;47.876;8.346;2022-09-09T15:36:39;17.80;99.90
9699;DHT22;10089;47.876;8.346;2022-09-09T15:39:06;17.70;99.90
9699;DHT22;10089;47.876;8.346;2022-09-09T15:41:32;17.70;99.90
9699;DHT22;10089;47.876;8.346;2022-09-09T15:43:58;17.60;99.90
9699;DHT22;10089;47.876;8.346;2022-09-09T15:48:54;17.50;99.90
9699;DHT22;10089;47.876;8.346;2022-09-09T15:51:21;17.50;99.90
9699;DHT22;10089;47.876;8.346;2022-09-09T15:53:47;17.40;99.90
9699;DHT22;10089;47.876;8.346;2022-09-09T15:56:12;17.50;99.90
9699;DHT22;10089;47.876;8.346;2022-09-09T15:58:38;17.30;99.90
9699;DHT22;10089;47.876;8.346;2022-09-09T16:01:07;17.20;99.90
9699;DHT22;10089;47.876;8.346;2022-09-09T16:03:34;17.10;99.90
9699;DHT22;10089;47.876;8.346;2022-09-09T16:06:00;16.90;99.90
9699;DHT22;10089;47.876;8.346;2022-09-09T16:08:31;16.90;99.90
9699;DHT22;10089;47.876;8.346;2022-09-09T16:11:03;16.80;99.90
9699;DHT22;10089;47.876;8.346;2022-09-09T16:13:29;16.70;99.90
9699;DHT22;10089;47.876;8.346;2022-09-09T16:15:57;16.60;99.90
9699;DHT22;10089;47.876;8.346;2022-09-09T16:18:24;16.60;99.90
9699;DHT22;10089;47.876;8.346;2022-09-09T16:20:53;16.60;99.90
9699;DHT22;10089;47.876;8.346;2022-09-09T16:23:19;16.60;99.90
9699;DHT22;10089;47.876;8.346;2022-09-09T16:25:52;16.60;99.90
9699;DHT22;10089;47.876;8.346;2022-09-09T16:28:18;16.50;99.90
9699;DHT22;10089;47.876;8.346;2022-09-09T16:30:44;16.50;99.90
9699;DHT22;10089;47.876;8.346;2022-09-09T16:33:09;16.50;99.90
9699;DHT22;10089;47.876;8.346;2022-09-09T16:35:36;16.40;99.90
9699;DHT22;10089;47.876;8.346;2022-09-09T16:38:01;16.40;99.90
9699;DHT22;10089;47.876;8.346;2022-09-09T16:40:27;16.30;99.90
9699;DHT22;10089;47.876;8.346;2022-09-09T16:42:55;16.20;99.90
9699;DHT22;10089;47.876;8.346;2022-09-09T16:45:21;16.10;99.90
9699;DHT22;10089;47.876;8.346;2022-09-09T16:47:54;16.40;99.90
9699;DHT22;10089;47.876;8.346;2022-09-09T16:50:22;16.20;99.90
9699;DHT22;10089;47.876;8.346;2022-09-09T16:52:51;16.40;99.90
9699;DHT22;10089;47.876;8.346;2022-09-09T16:55:17;16.40;99.90
9699;DHT22;10089;47.876;8.346;2022-09-09T16:57:44;16.20;99.90
9699;DHT22;10089;47.876;8.346;2022-09-09T17:00:21;15.90;99.90
9699;DHT22;10089;47.876;8.346;2022-09-09T17:02:50;15.70;99.90
9699;DHT22;10089;47.876;8.346;2022-09-09T17:08:46;15.70;99.90
9699;DHT22;10089;47.876;8.346;2022-09-09T17:14:14;15.30;99.90
9699;DHT22;10089;47.876;8.346;2022-09-09T17:16:52;17.20;99.90
9699;DHT22;10089;47.876;8.346;2022-09-09T17:19:17;15.30;99.90
9699;DHT22;10089;47.876;8.346;2022-09-09T17:21:52;15.10;99.90
9699;DHT22;10089;47.876;8.346;2022-09-09T17:24:21;14.90;99.90
9699;DHT22;10089;47.876;8.346;2022-09-09T17:26:50;15.30;99.90
9699;DHT22;10089;47.876;8.346;2022-09-09T17:29:25;13.30;99.90
9699;DHT22;10089;47.876;8.346;2022-09-09T17:31:53;14.90;99.90
9699;DHT22;10089;47.876;8.346;2022-09-09T17:34:20;15.20;99.90
9699;DHT22;10089;47.876;8.346;2022-09-09T17:36:48;15.00;99.90
9699;DHT22;10089;47.876;8.346;2022-09-09T17:39:17;14.90;99.90
9699;DHT22;10089;47.876;8.346;2022-09-09T17:41:43;14.80;99.90
9699;DHT22;10089;47.876;8.346;2022-09-09T17:44:11;14.70;99.90
9699;DHT22;10089;47.876;8.346;2022-09-09T17:46:38;15.10;99.90
9699;DHT22;10089;47.876;8.346;2022-09-09T17:49:13;14.70;99.90
9699;DHT22;10089;47.876;8.346;2022-09-09T17:51:39;14.60;99.90
9699;DHT22;10089;47.876;8.346;2022-09-09T17:54:11;14.50;99.90
9699;DHT22;10089;47.876;8.346;2022-09-09T17:56:37;14.40;99.90
9699;DHT22;10089;47.876;8.346;2022-09-09T17:59:04;14.40;99.90
9699;DHT22;10089;47.876;8.346;2022-09-09T18:01:31;14.20;99.90
9699;DHT22;10089;47.876;8.346;2022-09-09T18:03:58;13.70;99.90